Lowell, North Carolina
Current Conditions -  °F | °C
As of 6:54 AM on Saturday 22 Nov 2014 (Local Time) from KAKH Reporting Station
Clear Clear  
Wind Chill: 26°   Ceiling: Unl
Heat Index: 26°   Visibility: 10mi
Dew Point: 16°   Wind: 0mph
Humidity: 66%   Direction: NA
Pressure: 30.55"   Gusts: NA
Location:  35.27°N, 81.1°W
Report Text: KAKH 221154Z AUTO 00000KT 10SM CLR M03/M09 A3055 RMK AO2 SLP354 T10331089 10006 21033 53012
Loading
Personal Weather Stations






























Interactive Weather Map New forecast layout! Learn more

10-Day Weather Forecast

Advertisements
Track Severe Weather on mobile